createdAt,value
2023-05-14T00:00:06.428Z,5.47
2023-05-14T00:02:33.659Z,5.40
2023-05-14T00:05:00.745Z,5.73
2023-05-14T00:07:30.741Z,6.10
2023-05-14T00:09:58.346Z,5.80
2023-05-14T00:12:26.313Z,6.20
2023-05-14T00:14:53.580Z,8.43
2023-05-14T00:17:20.695Z,5.00
2023-05-14T00:19:47.807Z,5.03
2023-05-14T00:22:14.821Z,4.80
2023-05-14T00:24:41.873Z,7.80
2023-05-14T00:27:09.848Z,6.27
2023-05-14T00:29:36.960Z,6.57
2023-05-14T00:32:04.400Z,6.33
2023-05-14T00:34:31.418Z,9.60
2023-05-14T00:36:58.023Z,5.63
2023-05-14T00:39:25.240Z,7.67
2023-05-14T00:41:52.365Z,6.73
2023-05-14T00:44:19.453Z,5.67
2023-05-14T00:46:46.671Z,5.40
2023-05-14T00:49:13.579Z,6.07
2023-05-14T00:51:41.470Z,9.63
2023-05-14T00:54:08.840Z,7.97
2023-05-14T00:56:36.057Z,5.30
2023-05-14T00:59:02.774Z,5.57
2023-05-14T01:01:29.976Z,7.63
2023-05-14T01:03:57.991Z,5.63
2023-05-14T01:06:55.228Z,5.90
2023-05-14T01:09:41.431Z,5.63
2023-05-14T01:12:48.621Z,7.23
2023-05-14T01:15:31.578Z,7.00
2023-05-14T01:18:03.490Z,9.63
2023-05-14T01:20:30.541Z,6.17
2023-05-14T01:22:57.770Z,5.60
2023-05-14T01:25:25.112Z,6.30
2023-05-14T01:28:08.902Z,7.33
2023-05-14T01:31:06.656Z,5.97
2023-05-14T01:33:35.043Z,5.63
2023-05-14T01:36:02.602Z,7.10
2023-05-14T01:38:31.627Z,5.50
2023-05-14T01:40:59.474Z,5.77
2023-05-14T01:43:26.345Z,5.30
2023-05-14T01:45:55.432Z,5.57
2023-05-14T01:48:22.613Z,5.97
2023-05-14T01:50:49.729Z,5.60
2023-05-14T01:53:16.811Z,6.30
2023-05-14T01:55:43.407Z,5.77
2023-05-14T01:58:10.533Z,5.60
2023-05-14T02:00:38.254Z,7.60
2023-05-14T02:03:05.357Z,9.63
2023-05-14T02:05:32.510Z,5.83
2023-05-14T02:07:59.550Z,6.80
2023-05-14T02:10:26.644Z,5.83
2023-05-14T02:12:53.888Z,6.03
2023-05-14T02:15:20.922Z,7.23
2023-05-14T02:17:47.614Z,5.67
2023-05-14T02:20:15.221Z,6.60
2023-05-14T02:22:45.494Z,5.03
2023-05-14T02:25:12.620Z,5.70
2023-05-14T02:27:40.154Z,5.50
2023-05-14T02:30:07.389Z,6.80
2023-05-14T02:32:34.500Z,5.87
2023-05-14T02:35:01.774Z,5.60
2023-05-14T02:37:28.839Z,6.33
2023-05-14T02:39:55.885Z,5.60
2023-05-14T02:42:23.270Z,6.03
2023-05-14T02:44:52.172Z,5.93
2023-05-14T02:47:19.633Z,5.43
2023-05-14T02:49:46.279Z,6.83
2023-05-14T02:52:13.339Z,6.00
2023-05-14T02:54:40.553Z,5.53
2023-05-14T02:57:07.592Z,6.13
2023-05-14T02:59:35.179Z,5.87
2023-05-14T03:02:02.595Z,10.17
2023-05-14T03:04:29.916Z,5.70
2023-05-14T03:06:56.575Z,5.63
2023-05-14T03:09:23.663Z,6.90
2023-05-14T03:11:51.005Z,6.00
2023-05-14T03:14:18.108Z,5.67
2023-05-14T03:16:46.024Z,6.20
2023-05-14T03:19:13.207Z,7.67
2023-05-14T03:21:40.505Z,7.90
2023-05-14T03:24:07.143Z,6.83
2023-05-14T03:26:34.271Z,7.00
2023-05-14T03:29:01.400Z,6.07
2023-05-14T03:31:28.190Z,7.33
2023-05-14T03:33:56.419Z,11.20
2023-05-14T03:36:23.841Z,7.60
2023-05-14T03:38:50.855Z,6.83
2023-05-14T03:41:19.847Z,7.87
2023-05-14T03:43:47.178Z,6.37
2023-05-14T03:46:14.214Z,8.33
2023-05-14T03:48:41.314Z,6.60
2023-05-14T03:51:08.388Z,6.10
2023-05-14T03:53:36.541Z,7.03
2023-05-14T03:56:03.635Z,6.50
2023-05-14T03:58:30.906Z,8.17
2023-05-14T04:00:58.049Z,7.80
2023-05-14T04:03:25.740Z,7.43
2023-05-14T04:05:52.896Z,9.67
2023-05-14T04:08:20.162Z,6.33
2023-05-14T04:10:47.256Z,7.27
2023-05-14T04:13:14.414Z,7.37
2023-05-14T04:15:41.133Z,6.60
2023-05-14T04:18:08.240Z,7.90
2023-05-14T04:20:35.073Z,7.07
2023-05-14T04:23:02.111Z,7.80
2023-05-14T04:25:29.796Z,11.83
2023-05-14T04:27:56.834Z,9.43
2023-05-14T04:30:24.070Z,8.70
2023-05-14T04:32:51.554Z,7.20
2023-05-14T04:35:21.205Z,10.10
2023-05-14T04:37:49.289Z,9.07
2023-05-14T04:40:19.220Z,8.07
2023-05-14T04:42:46.327Z,10.60
2023-05-14T04:45:13.624Z,8.40
2023-05-14T04:47:41.659Z,8.50
2023-05-14T04:50:09.679Z,7.37
2023-05-14T04:52:36.258Z,7.93
2023-05-14T04:55:03.272Z,9.07
2023-05-14T04:57:30.402Z,7.50
2023-05-14T04:59:57.446Z,8.27
2023-05-14T05:02:24.488Z,6.97
2023-05-14T05:04:51.539Z,8.00
2023-05-14T05:07:18.573Z,8.00
2023-05-14T05:09:45.598Z,9.50
2023-05-14T05:12:12.707Z,8.03
2023-05-14T05:14:39.766Z,9.30
2023-05-14T05:17:06.830Z,7.93
2023-05-14T05:19:43.019Z,8.30
2023-05-14T05:22:10.605Z,11.33
2023-05-14T05:24:37.769Z,8.77
2023-05-14T05:27:05.496Z,10.17
2023-05-14T05:29:32.673Z,8.67
2023-05-14T05:31:59.384Z,8.03
2023-05-14T05:34:26.467Z,8.57
2023-05-14T05:36:53.086Z,7.70
2023-05-14T05:39:20.423Z,8.10
2023-05-14T05:41:47.440Z,6.17
2023-05-14T05:44:14.513Z,7.27
2023-05-14T05:46:41.625Z,6.27
2023-05-14T05:49:08.679Z,6.00
2023-05-14T05:51:35.707Z,6.30
2023-05-14T05:54:02.769Z,5.47
2023-05-14T05:56:29.806Z,4.87
2023-05-14T05:58:56.615Z,5.10
2023-05-14T06:01:23.884Z,4.33
2023-05-14T06:03:50.888Z,5.90
2023-05-14T06:06:17.894Z,4.60
2023-05-14T06:08:44.898Z,3.80
2023-05-14T06:11:11.928Z,4.27
2023-05-14T06:13:38.956Z,4.00
2023-05-14T06:16:06.138Z,4.57
2023-05-14T06:18:32.800Z,4.80
2023-05-14T06:21:00.175Z,4.93
2023-05-14T06:23:27.071Z,3.80
2023-05-14T06:25:53.641Z,6.13
2023-05-14T06:28:20.242Z,4.87
2023-05-14T06:30:50.198Z,3.40
2023-05-14T06:33:19.342Z,3.37
2023-05-14T06:35:47.569Z,2.97
2023-05-14T06:38:14.607Z,3.93
2023-05-14T06:40:41.600Z,2.80
2023-05-14T06:43:08.184Z,3.10
2023-05-14T06:45:35.793Z,4.13
2023-05-14T06:48:02.483Z,8.13
2023-05-14T06:50:29.523Z,3.20
2023-05-14T06:52:56.592Z,3.00
2023-05-14T06:55:23.772Z,2.40
2023-05-14T06:57:50.894Z,2.60
2023-05-14T07:00:17.918Z,2.80
2023-05-14T07:02:44.553Z,2.50
2023-05-14T07:05:11.282Z,2.00
2023-05-14T07:07:37.897Z,3.73
2023-05-14T07:10:05.229Z,3.27
2023-05-14T07:12:31.825Z,2.60
2023-05-14T07:14:58.412Z,2.20
2023-05-14T07:17:25.324Z,2.40
2023-05-14T07:19:51.930Z,3.93
2023-05-14T07:22:18.512Z,1.97
2023-05-14T07:24:45.193Z,2.20
2023-05-14T07:27:12.402Z,3.43
2023-05-14T07:29:39.579Z,2.33
2023-05-14T07:32:06.187Z,3.43
2023-05-14T07:34:32.887Z,2.37
2023-05-14T07:36:59.622Z,2.30
2023-05-14T07:39:26.461Z,2.93
2023-05-14T07:41:54.804Z,2.07
2023-05-14T07:44:21.532Z,3.30
2023-05-14T07:46:48.161Z,2.40
2023-05-14T07:49:14.735Z,2.40
2023-05-14T07:51:41.746Z,2.03
2023-05-14T07:54:08.440Z,2.50
2023-05-14T07:56:35.006Z,2.93
2023-05-14T07:59:01.612Z,3.57
2023-05-14T08:01:28.195Z,2.83
2023-05-14T08:03:54.979Z,2.53
2023-05-14T08:06:22.695Z,2.60
2023-05-14T08:08:49.396Z,2.90
2023-05-14T08:11:16.086Z,2.73
2023-05-14T08:13:42.709Z,3.43
2023-05-14T08:16:09.368Z,2.93
2023-05-14T08:18:36.156Z,2.73
2023-05-14T08:21:03.740Z,2.77
2023-05-14T08:23:30.619Z,2.93
2023-05-14T08:25:57.254Z,2.73
2023-05-14T08:28:23.841Z,2.93
2023-05-14T08:30:51.502Z,3.10
2023-05-14T08:33:18.256Z,3.77
2023-05-14T08:35:44.846Z,4.20
2023-05-14T08:38:11.416Z,3.17
2023-05-14T08:40:38.191Z,2.40
2023-05-14T08:43:06.177Z,3.23
2023-05-14T08:45:35.026Z,2.50
2023-05-14T08:48:08.661Z,2.03
2023-05-14T08:50:36.041Z,1.87
2023-05-14T08:53:02.704Z,2.00
2023-05-14T08:55:31.722Z,3.23
2023-05-14T08:57:58.399Z,2.00
2023-05-14T09:00:26.408Z,2.03
2023-05-14T09:02:54.007Z,2.40
2023-05-14T09:05:21.947Z,2.47
2023-05-14T09:07:48.604Z,3.17
2023-05-14T09:10:16.112Z,2.33
2023-05-14T09:12:42.800Z,2.47
2023-05-14T09:15:09.654Z,2.20
2023-05-14T09:17:36.423Z,1.70
2023-05-14T09:20:04.418Z,2.10
2023-05-14T09:22:33.808Z,2.53
2023-05-14T09:25:09.442Z,1.80
2023-05-14T09:27:36.565Z,1.80
2023-05-14T09:30:11.151Z,1.63
2023-05-14T09:32:46.209Z,3.03
2023-05-14T09:35:16.900Z,1.70
2023-05-14T09:37:51.616Z,2.03
2023-05-14T09:40:19.863Z,1.83
2023-05-14T09:42:48.159Z,6.50
2023-05-14T09:45:15.356Z,1.67
2023-05-14T09:47:42.488Z,1.70
2023-05-14T09:50:09.400Z,1.70
2023-05-14T09:52:37.198Z,1.33
2023-05-14T09:55:04.172Z,2.70
2023-05-14T09:57:30.860Z,3.17
2023-05-14T09:59:57.515Z,1.70
2023-05-14T10:02:26.652Z,1.30
2023-05-14T10:04:54.633Z,1.60
2023-05-14T10:07:41.567Z,1.47
2023-05-14T10:10:12.303Z,1.70
2023-05-14T10:12:40.417Z,1.70
2023-05-14T10:15:15.506Z,1.67
2023-05-14T10:17:48.526Z,1.67
2023-05-14T10:20:18.866Z,1.73
2023-05-14T10:22:46.098Z,1.30
2023-05-14T10:25:13.054Z,1.70
2023-05-14T10:27:40.776Z,1.87
2023-05-14T10:30:14.291Z,1.70
2023-05-14T10:32:42.012Z,1.43
2023-05-14T10:35:20.695Z,1.50
2023-05-14T10:37:51.126Z,2.13
2023-05-14T10:40:19.067Z,1.60
2023-05-14T10:42:46.763Z,1.53
2023-05-14T10:45:15.243Z,1.63
2023-05-14T10:47:47.151Z,1.90
2023-05-14T10:50:17.650Z,1.47
2023-05-14T10:52:45.444Z,1.60
2023-05-14T10:55:16.706Z,1.37
2023-05-14T10:57:45.569Z,2.30
2023-05-14T11:00:13.735Z,2.63
2023-05-14T11:02:42.667Z,2.67
2023-05-14T11:05:13.957Z,1.60
2023-05-14T11:07:42.478Z,3.13
2023-05-14T11:10:14.710Z,2.30
2023-05-14T11:12:47.483Z,2.73
2023-05-14T11:15:16.317Z,1.57
2023-05-14T11:17:44.911Z,2.30
2023-05-14T11:20:12.395Z,1.40
2023-05-14T11:22:40.673Z,1.80
2023-05-14T11:25:08.569Z,1.60
2023-05-14T11:27:37.226Z,2.10
2023-05-14T11:30:04.743Z,1.60
2023-05-14T11:32:35.271Z,1.87
2023-05-14T11:35:02.259Z,2.00
2023-05-14T11:37:30.637Z,1.60
2023-05-14T11:40:01.482Z,1.50
2023-05-14T11:42:28.326Z,1.47
2023-05-14T11:44:55.094Z,10.90
2023-05-14T11:47:22.080Z,1.50
2023-05-14T11:49:49.170Z,1.30
2023-05-14T11:52:19.125Z,1.70
2023-05-14T11:54:46.523Z,1.40
2023-05-14T11:57:16.395Z,1.80
2023-05-14T11:59:43.396Z,2.17
2023-05-14T12:02:18.053Z,1.43
2023-05-14T12:04:49.340Z,1.87
2023-05-14T12:07:16.459Z,2.27
2023-05-14T12:09:49.777Z,1.70
2023-05-14T12:12:23.007Z,1.57
2023-05-14T12:14:50.569Z,1.53
2023-05-14T12:17:22.312Z,1.43
2023-05-14T12:19:53.773Z,1.73
2023-05-14T12:22:22.946Z,1.93
2023-05-14T12:24:57.763Z,1.33
2023-05-14T12:27:29.560Z,1.83
2023-05-14T12:32:45.075Z,1.67
2023-05-14T12:35:11.779Z,2.90
2023-05-14T12:37:39.852Z,1.50
2023-05-14T12:40:09.363Z,1.63
2023-05-14T12:42:36.955Z,2.40
2023-05-14T12:45:07.016Z,1.50
2023-05-14T12:47:34.551Z,1.67
2023-05-14T12:50:01.840Z,1.60
2023-05-14T12:52:37.811Z,1.67
2023-05-14T12:55:07.991Z,2.10
2023-05-14T12:57:35.468Z,1.53
2023-05-14T13:00:06.565Z,1.60
2023-05-14T13:02:33.465Z,1.73
2023-05-14T13:05:10.629Z,1.63
2023-05-14T13:07:37.963Z,1.40
2023-05-14T13:10:05.763Z,1.50
2023-05-14T13:12:32.718Z,1.70
2023-05-14T13:14:59.438Z,2.03
2023-05-14T13:17:26.628Z,1.80
2023-05-14T13:19:53.390Z,1.67
2023-05-14T13:22:20.071Z,1.60
2023-05-14T13:24:47.132Z,1.60
2023-05-14T13:27:14.157Z,1.30
2023-05-14T13:29:40.786Z,20.33
2023-05-14T13:32:07.556Z,1.30
2023-05-14T13:34:34.742Z,1.53
2023-05-14T13:37:01.828Z,1.47
2023-05-14T13:39:28.862Z,1.47
2023-05-14T13:41:56.724Z,1.67
2023-05-14T13:44:23.499Z,1.50
2023-05-14T13:46:50.262Z,2.07
2023-05-14T13:49:17.324Z,1.60
2023-05-14T13:51:44.298Z,1.40
2023-05-14T13:54:11.362Z,1.20
2023-05-14T13:56:37.986Z,1.43
2023-05-14T13:59:05.849Z,1.40
2023-05-14T14:01:32.994Z,1.63
2023-05-14T14:03:59.736Z,1.73
2023-05-14T14:06:27.461Z,1.10
2023-05-14T14:08:54.193Z,1.43
2023-05-14T14:11:21.044Z,3.30
2023-05-14T14:13:48.117Z,4.73
2023-05-14T14:16:16.073Z,2.00
2023-05-14T14:18:43.502Z,2.57
2023-05-14T14:21:10.906Z,2.23
2023-05-14T14:23:38.093Z,2.43
2023-05-14T14:26:05.255Z,2.50
2023-05-14T14:28:32.302Z,2.10
2023-05-14T14:30:58.940Z,1.60
2023-05-14T14:33:25.799Z,2.00
2023-05-14T14:35:52.883Z,2.10
2023-05-14T14:38:19.950Z,2.10
2023-05-14T14:40:47.045Z,1.47
2023-05-14T14:43:13.684Z,1.73
2023-05-14T14:45:40.371Z,1.87
2023-05-14T14:48:39.159Z,1.93
2023-05-14T14:51:09.319Z,2.00
2023-05-14T14:53:37.047Z,1.87
2023-05-14T14:56:04.379Z,3.07
2023-05-14T14:58:31.193Z,2.07
2023-05-14T15:00:58.530Z,2.00
2023-05-14T15:03:26.079Z,3.00
2023-05-14T15:05:53.787Z,1.90
2023-05-14T15:08:24.305Z,2.10
2023-05-14T15:10:51.427Z,1.90
2023-05-14T15:13:18.456Z,2.03
2023-05-14T15:15:45.579Z,1.80
2023-05-14T15:18:12.243Z,1.73
2023-05-14T15:20:39.421Z,2.23
2023-05-14T15:23:06.716Z,2.70
2023-05-14T15:25:33.794Z,3.43
2023-05-14T15:28:00.511Z,1.70
2023-05-14T15:30:27.619Z,1.70
2023-05-14T15:32:54.693Z,1.80
2023-05-14T15:35:21.560Z,2.93
2023-05-14T15:37:48.783Z,1.50
2023-05-14T15:40:15.618Z,1.70
2023-05-14T15:42:43.671Z,1.30
2023-05-14T15:45:12.530Z,1.40
2023-05-14T15:47:40.266Z,1.50
2023-05-14T15:50:07.747Z,2.10
2023-05-14T15:52:35.746Z,1.50
2023-05-14T15:55:02.944Z,1.07
2023-05-14T15:57:30.065Z,1.87
2023-05-14T15:59:57.244Z,1.53
2023-05-14T16:02:24.438Z,2.40
2023-05-14T16:04:51.060Z,1.33
2023-05-14T16:07:18.086Z,1.50
2023-05-14T16:09:45.144Z,4.07
2023-05-14T16:12:12.417Z,1.43
2023-05-14T16:14:41.916Z,2.87
2023-05-14T16:17:09.144Z,1.50
2023-05-14T16:19:36.247Z,1.27
2023-05-14T16:22:03.264Z,1.30
2023-05-14T16:24:29.929Z,1.83
2023-05-14T16:26:56.766Z,1.10
2023-05-14T16:29:23.767Z,1.97
2023-05-14T16:31:50.910Z,1.17
2023-05-14T16:34:17.544Z,1.60
2023-05-14T16:36:44.178Z,1.10
2023-05-14T16:39:11.485Z,1.60
2023-05-14T16:41:38.563Z,3.10
2023-05-14T16:44:05.169Z,1.63
2023-05-14T16:46:32.440Z,1.40
2023-05-14T16:48:59.649Z,1.43
2023-05-14T16:51:26.247Z,3.13
2023-05-14T16:53:55.423Z,1.40
2023-05-14T16:56:22.487Z,1.30
2023-05-14T16:58:49.609Z,1.10
2023-05-14T17:01:16.703Z,1.37
2023-05-14T17:03:44.691Z,1.33
2023-05-14T17:06:11.565Z,1.20
2023-05-14T17:08:38.164Z,1.00
2023-05-14T17:11:05.808Z,1.40
2023-05-14T17:13:33.246Z,1.60
2023-05-14T17:16:00.566Z,1.50
2023-05-14T17:18:27.723Z,1.63
2023-05-14T17:20:54.812Z,2.20
2023-05-14T17:23:21.869Z,1.67
2023-05-14T17:25:48.967Z,2.00
2023-05-14T17:28:15.774Z,2.53
2023-05-14T17:30:42.908Z,2.23
2023-05-14T17:33:10.180Z,2.37
2023-05-14T17:35:37.380Z,3.63
2023-05-14T17:38:04.397Z,2.40
2023-05-14T17:40:30.987Z,2.23
2023-05-14T17:42:58.089Z,2.40
2023-05-14T17:45:25.318Z,2.57
2023-05-14T17:47:52.648Z,2.43
2023-05-14T17:50:19.458Z,3.27
2023-05-14T17:52:47.467Z,2.60
2023-05-14T17:55:14.602Z,2.50
2023-05-14T17:57:42.065Z,2.30
2023-05-14T18:00:09.057Z,3.43
2023-05-14T18:02:39.395Z,3.27
2023-05-14T18:05:06.513Z,2.87
2023-05-14T18:07:33.601Z,4.00
2023-05-14T18:10:00.694Z,6.67
2023-05-14T18:12:27.472Z,3.43
2023-05-14T18:14:54.809Z,4.80
2023-05-14T18:17:21.557Z,3.40
2023-05-14T18:19:48.681Z,3.60
2023-05-14T18:22:15.980Z,3.93
2023-05-14T18:24:44.259Z,3.60
2023-05-14T18:27:11.428Z,3.97
2023-05-14T18:29:38.125Z,3.60
2023-05-14T18:32:05.528Z,5.53
2023-05-14T18:34:32.114Z,5.27
2023-05-14T18:36:58.839Z,3.13
2023-05-14T18:39:26.856Z,4.83
2023-05-14T18:41:53.938Z,6.77
2023-05-14T18:44:20.555Z,3.33
2023-05-14T18:46:47.638Z,5.60
2023-05-14T18:49:14.744Z,4.10
2023-05-14T18:51:42.253Z,3.73
2023-05-14T18:54:09.499Z,4.63
2023-05-14T18:56:37.377Z,9.20
2023-05-14T18:59:04.389Z,3.97
2023-05-14T19:01:31.329Z,3.77
2023-05-14T19:03:58.741Z,3.77
2023-05-14T19:06:25.649Z,4.90
2023-05-14T19:08:52.924Z,4.00
2023-05-14T19:11:20.195Z,3.70
2023-05-14T19:13:49.427Z,4.27
2023-05-14T19:16:16.597Z,5.20
2023-05-14T19:18:44.065Z,4.03
2023-05-14T19:21:11.345Z,5.27
2023-05-14T19:23:39.266Z,4.50
2023-05-14T19:26:06.926Z,4.00
2023-05-14T19:28:34.122Z,4.73
2023-05-14T19:31:01.550Z,4.53
2023-05-14T19:33:28.931Z,4.03
2023-05-14T19:35:56.402Z,4.00
2023-05-14T19:38:23.339Z,4.43
2023-05-14T19:40:51.292Z,4.50
2023-05-14T19:43:18.286Z,4.50
2023-05-14T19:45:45.807Z,6.90
2023-05-14T19:48:13.646Z,4.67
2023-05-14T19:50:41.408Z,4.97
2023-05-14T19:53:07.994Z,5.03
2023-05-14T19:55:35.167Z,6.70
2023-05-14T19:58:01.789Z,4.13
2023-05-14T20:00:28.961Z,5.07
2023-05-14T20:02:59.347Z,4.43
2023-05-14T20:05:26.812Z,5.33
2023-05-14T20:07:54.608Z,4.67
2023-05-14T20:10:22.107Z,4.97
2023-05-14T20:12:49.543Z,5.10
2023-05-14T20:15:16.802Z,4.27
2023-05-14T20:17:44.052Z,5.13
2023-05-14T20:20:12.051Z,5.93
2023-05-14T20:22:39.961Z,6.47
2023-05-14T20:25:07.361Z,4.90
2023-05-14T20:27:34.497Z,4.53
2023-05-14T20:30:02.032Z,4.73
2023-05-14T20:32:29.148Z,4.60
2023-05-14T20:35:01.747Z,5.90
2023-05-14T20:37:34.844Z,6.30
2023-05-14T20:40:02.349Z,4.67
2023-05-14T20:42:29.602Z,4.63
2023-05-14T20:44:56.917Z,5.67
2023-05-14T20:47:26.552Z,6.77
2023-05-14T20:49:53.733Z,4.17
2023-05-14T20:52:20.364Z,4.60
2023-05-14T20:54:47.592Z,4.50
2023-05-14T20:57:18.268Z,4.03
2023-05-14T20:59:48.870Z,4.53
2023-05-14T21:02:16.116Z,5.23
2023-05-14T21:04:43.583Z,4.20
2023-05-14T21:07:10.388Z,4.77
2023-05-14T21:09:37.597Z,4.83
2023-05-14T21:12:04.538Z,4.90
2023-05-14T21:14:31.394Z,5.43
2023-05-14T21:16:58.443Z,4.80
2023-05-14T21:19:25.613Z,4.53
2023-05-14T21:21:52.703Z,4.67
2023-05-14T21:24:19.739Z,4.30
2023-05-14T21:26:46.952Z,5.93
2023-05-14T21:29:14.035Z,4.73
2023-05-14T21:31:41.180Z,6.60
2023-05-14T21:34:08.320Z,5.23
2023-05-14T21:36:35.142Z,5.40
2023-05-14T21:39:02.164Z,5.67
2023-05-14T21:41:29.241Z,5.83
2023-05-14T21:43:56.322Z,5.50
2023-05-14T21:46:23.447Z,5.77
2023-05-14T21:48:50.291Z,8.10
2023-05-14T21:51:17.494Z,5.37
2023-05-14T21:53:44.981Z,8.20
2023-05-14T21:56:11.778Z,5.20
2023-05-14T21:58:38.903Z,6.07
2023-05-14T22:01:06.048Z,5.57
2023-05-14T22:03:33.131Z,6.30
2023-05-14T22:06:00.548Z,8.30
2023-05-14T22:08:27.649Z,5.37
2023-05-14T22:10:55.679Z,5.70
2023-05-14T22:13:22.768Z,6.93
2023-05-14T22:15:55.520Z,5.97
2023-05-14T22:18:28.358Z,5.50
2023-05-14T22:20:55.488Z,7.27
2023-05-14T22:23:22.111Z,7.47
2023-05-14T22:25:48.678Z,5.57
2023-05-14T22:28:15.775Z,5.80
2023-05-14T22:30:42.811Z,6.07
2023-05-14T22:33:10.073Z,6.77
2023-05-14T22:35:37.152Z,6.90
2023-05-14T22:38:04.195Z,6.37
2023-05-14T22:40:32.261Z,7.03
2023-05-14T22:42:59.298Z,6.60
2023-05-14T22:45:26.155Z,8.27
2023-05-14T22:47:54.153Z,8.07
2023-05-14T22:50:21.265Z,6.33
2023-05-14T22:52:47.852Z,8.47
2023-05-14T22:55:14.954Z,6.30
2023-05-14T22:57:42.055Z,7.47
2023-05-14T23:00:09.331Z,6.13
2023-05-14T23:02:36.461Z,6.73
2023-05-14T23:05:03.212Z,6.00
2023-05-14T23:07:30.396Z,6.60
2023-05-14T23:09:57.411Z,6.50
2023-05-14T23:12:24.503Z,9.03
2023-05-14T23:14:51.575Z,6.30
2023-05-14T23:17:18.719Z,6.73
2023-05-14T23:19:45.762Z,7.47
2023-05-14T23:22:12.868Z,6.23
2023-05-14T23:24:39.914Z,7.30
2023-05-14T23:27:07.034Z,6.07
2023-05-14T23:29:34.108Z,6.07
2023-05-14T23:32:01.144Z,9.33
2023-05-14T23:34:28.290Z,7.43
2023-05-14T23:36:55.294Z,7.87
2023-05-14T23:39:22.477Z,7.53
2023-05-14T23:41:49.655Z,7.60
2023-05-14T23:44:16.666Z,6.43
2023-05-14T23:46:43.806Z,6.27
2023-05-14T23:49:10.977Z,6.60
2023-05-14T23:51:38.004Z,7.33
2023-05-14T23:54:05.392Z,5.80
2023-05-14T23:56:32.547Z,6.43
2023-05-14T23:58:59.628Z,7.43
